Time;durP1;ratioP1;P1;durP2;ratioP2;P2;SDS_P1;SDS_P2;PMS_P1;PMS_P2;Temp;Humidity;BMP_temperature;BMP_pressure;BME280_temperature;BME280_humidity;BME280_pressure;Samples;Min_cycle;Max_cycle;Signal;HPM_P1;HPM_P2
2022/08/03 00:01:41;;;;;;;;;;;23.20;72.70;;;;;;5116859;28;20002;-74
2022/08/03 00:04:07;;;;;;;;;;;23.10;72.80;;;;;;5117327;28;19915;-73
2022/08/03 00:06:33;;;;;;;;;;;23.00;73.10;;;;;;5117218;28;19907;-73
2022/08/03 00:08:58;;;;;;;;;;;23.00;73.30;;;;;;5116987;28;20002;-74
2022/08/03 00:11:25;;;;;;;;;;;23.00;73.40;;;;;;5116898;28;19916;-73
2022/08/03 00:13:50;;;;;;;;;;;23.00;73.30;;;;;;5116738;28;20006;-73
2022/08/03 00:16:16;;;;;;;;;;;23.00;73.50;;;;;;5117476;28;19942;-75
2022/08/03 00:18:42;;;;;;;;;;;23.00;73.60;;;;;;5116924;28;19912;-73
2022/08/03 00:21:07;;;;;;;;;;;23.00;74.00;;;;;;5116770;28;19916;-73
2022/08/03 00:23:33;;;;;;;;;;;22.90;74.80;;;;;;5116756;28;19931;-73
2022/08/03 00:25:59;;;;;;;;;;;22.80;74.30;;;;;;5116851;28;19908;-74
2022/08/03 00:28:24;;;;;;;;;;;22.80;74.20;;;;;;5116698;28;19912;-74
2022/08/03 00:30:50;;;;;;;;;;;22.70;73.80;;;;;;5116469;28;20002;-73
2022/08/03 00:33:15;;;;;;;;;;;22.70;74.00;;;;;;5116751;28;20318;-74
2022/08/03 00:35:41;;;;;;;;;;;22.70;74.00;;;;;;5117050;28;19919;-74
2022/08/03 00:38:07;;;;;;;;;;;22.70;74.20;;;;;;5116351;28;20251;-74
2022/08/03 00:40:32;;;;;;;;;;;22.70;74.10;;;;;;5116252;28;19912;-74
2022/08/03 00:42:59;;;;;;;;;;;22.70;74.20;;;;;;5116420;28;19911;-74
2022/08/03 00:45:26;;;;;;;;;;;22.80;74.00;;;;;;5116528;28;19908;-74
2022/08/03 00:47:52;;;;;;;;;;;22.90;74.10;;;;;;5116387;28;19914;-74
2022/08/03 00:50:19;;;;;;;;;;;22.90;74.00;;;;;;5115223;28;20266;-74
2022/08/03 00:52:45;;;;;;;;;;;22.80;74.10;;;;;;5116306;28;19994;-74
2022/08/03 00:55:11;;;;;;;;;;;22.90;74.10;;;;;;5115953;28;19908;-75
2022/08/03 00:57:36;;;;;;;;;;;23.00;74.60;;;;;;5116124;28;20342;-75
2022/08/03 01:00:03;;;;;;;;;;;22.90;74.00;;;;;;5116219;28;19911;-75
2022/08/03 01:02:29;;;;;;;;;;;22.90;74.10;;;;;;5115594;28;19962;-75
2022/08/03 01:04:55;;;;;;;;;;;22.90;74.70;;;;;;5116085;28;20438;-75
2022/08/03 01:07:36;;;;;;;;;;;22.90;74.50;;;;;;5116013;28;20269;-73
2022/08/03 01:10:16;;;;;;;;;;;22.90;75.30;;;;;;5115337;28;20255;-74
2022/08/03 01:13:10;;;;;;;;;;;22.90;74.30;;;;;;5116098;28;20282;-75
2022/08/03 01:15:40;;;;;;;;;;;22.90;73.70;;;;;;5095123;28;19950;-75
2022/08/03 01:18:09;;;;;;;;;;;22.90;73.70;;;;;;5115643;28;19919;-75
2022/08/03 01:20:37;;;;;;;;;;;22.80;73.90;;;;;;5115348;28;19963;-74
2022/08/03 01:23:13;;;;;;;;;;;22.90;74.00;;;;;;5115831;28;19907;-75
2022/08/03 01:25:41;;;;;;;;;;;22.80;73.80;;;;;;5115719;28;19908;-75
2022/08/03 01:28:25;;;;;;;;;;;22.80;75.00;;;;;;5116084;28;19908;-75
2022/08/03 01:30:53;;;;;;;;;;;22.80;74.30;;;;;;5115370;28;19961;-74
2022/08/03 01:33:20;;;;;;;;;;;22.70;75.30;;;;;;5115507;28;20318;-74
2022/08/03 01:35:46;;;;;;;;;;;22.70;74.70;;;;;;5115416;28;19930;-74
2022/08/03 01:38:20;;;;;;;;;;;22.70;74.70;;;;;;5115609;28;20314;-75
2022/08/03 01:40:46;;;;;;;;;;;22.70;74.50;;;;;;5115128;28;20391;-75
2022/08/03 01:43:15;;;;;;;;;;;22.70;75.20;;;;;;5114069;28;19912;-75
2022/08/03 01:45:42;;;;;;;;;;;22.70;74.50;;;;;;5115213;28;19908;-75
2022/08/03 01:48:08;;;;;;;;;;;22.70;75.20;;;;;;5115052;28;19914;-76
2022/08/03 01:50:34;;;;;;;;;;;22.70;75.00;;;;;;5115216;28;19911;-75
2022/08/03 01:53:00;;;;;;;;;;;22.70;75.10;;;;;;5114921;28;19914;-74
2022/08/03 01:55:27;;;;;;;;;;;22.60;74.80;;;;;;5115037;28;19915;-74
2022/08/03 01:57:54;;;;;;;;;;;22.70;76.10;;;;;;5113783;28;19956;-74
2022/08/03 02:00:20;;;;;;;;;;;22.70;75.50;;;;;;5115004;28;20023;-74
2022/08/03 02:02:46;;;;;;;;;;;22.60;75.40;;;;;;5115005;28;19951;-74
2022/08/03 02:05:13;;;;;;;;;;;22.60;75.00;;;;;;5115142;28;19908;-75
2022/08/03 02:07:39;;;;;;;;;;;22.60;75.60;;;;;;5114676;28;20417;-74
2022/08/03 02:10:06;;;;;;;;;;;22.50;75.30;;;;;;5113424;28;19963;-75
2022/08/03 02:12:33;;;;;;;;;;;22.60;75.70;;;;;;5114782;28;19915;-75
2022/08/03 02:14:59;;;;;;;;;;;22.60;75.30;;;;;;5114898;28;19907;-75
2022/08/03 02:17:25;;;;;;;;;;;22.60;75.60;;;;;;5114549;28;19959;-75
2022/08/03 02:19:51;;;;;;;;;;;22.60;75.00;;;;;;5114454;28;19923;-75
2022/08/03 02:22:16;;;;;;;;;;;22.50;75.60;;;;;;5114701;28;19908;-74
2022/08/03 02:24:42;;;;;;;;;;;22.50;75.10;;;;;;5114449;28;19908;-73
2022/08/03 02:27:19;;;;;;;;;;;22.50;75.40;;;;;;5113008;28;19908;-73
2022/08/03 02:29:47;;;;;;;;;;;22.50;75.50;;;;;;5113765;28;19912;-74
2022/08/03 02:32:15;;;;;;;;;;;22.50;75.40;;;;;;5114857;28;19908;-74
2022/08/03 02:34:44;;;;;;;;;;;22.50;76.00;;;;;;5114578;28;20323;-75
2022/08/03 02:37:10;;;;;;;;;;;22.40;75.40;;;;;;5114416;28;20389;-75
2022/08/03 02:39:36;;;;;;;;;;;22.40;76.00;;;;;;5112900;28;19919;-75
2022/08/03 02:42:02;;;;;;;;;;;22.50;75.20;;;;;;5115208;28;19912;-75
2022/08/03 02:44:30;;;;;;;;;;;22.50;75.10;;;;;;5114886;28;20269;-74
2022/08/03 02:47:06;;;;;;;;;;;22.40;75.60;;;;;;5114660;28;19908;-74
2022/08/03 02:49:33;;;;;;;;;;;22.40;75.10;;;;;;5114673;28;19960;-75
2022/08/03 02:51:59;;;;;;;;;;;22.40;75.20;;;;;;5114470;28;19955;-75
2022/08/03 02:54:25;;;;;;;;;;;22.40;76.60;;;;;;5112833;28;20377;-75
2022/08/03 02:56:52;;;;;;;;;;;22.30;75.40;;;;;;5114220;28;19918;-74
2022/08/03 02:59:19;;;;;;;;;;;22.20;76.30;;;;;;5114232;28;19919;-74
2022/08/03 03:01:45;;;;;;;;;;;22.20;75.60;;;;;;5114098;28;19916;-74
2022/08/03 03:04:11;;;;;;;;;;;22.30;75.80;;;;;;5114266;28;19908;-74
2022/08/03 03:06:38;;;;;;;;;;;22.30;76.00;;;;;;5114257;28;19914;-75
2022/08/03 03:09:04;;;;;;;;;;;22.20;76.30;;;;;;5114263;28;19961;-74
2022/08/03 03:11:29;;;;;;;;;;;22.10;76.00;;;;;;5114463;28;19908;-75
2022/08/03 03:13:55;;;;;;;;;;;22.10;76.60;;;;;;5095877;28;19999;-75
2022/08/03 03:16:21;;;;;;;;;;;22.10;76.70;;;;;;5112634;28;20003;-76
2022/08/03 03:18:48;;;;;;;;;;;22.10;76.80;;;;;;5114443;28;19944;-74
2022/08/03 03:21:16;;;;;;;;;;;22.10;77.10;;;;;;5113940;28;20384;-74
2022/08/03 03:23:42;;;;;;;;;;;22.10;77.40;;;;;;5112662;28;19912;-75
2022/08/03 03:26:08;;;;;;;;;;;22.10;77.20;;;;;;5113606;28;19907;-75
2022/08/03 03:28:35;;;;;;;;;;;22.20;77.30;;;;;;5114003;28;19950;-75
2022/08/03 03:31:02;;;;;;;;;;;22.30;77.10;;;;;;5113173;28;20278;-75
2022/08/03 03:33:28;;;;;;;;;;;22.30;76.80;;;;;;5112429;28;19912;-75
2022/08/03 03:35:54;;;;;;;;;;;22.40;76.30;;;;;;5112222;28;20459;-76
2022/08/03 03:38:19;;;;;;;;;;;22.40;77.40;;;;;;5116240;28;20392;-75
2022/08/03 03:40:45;;;;;;;;;;;22.40;77.40;;;;;;5117167;28;19916;-76
2022/08/03 03:43:11;;;;;;;;;;;22.30;77.20;;;;;;5117299;28;20006;-75
2022/08/03 03:45:36;;;;;;;;;;;22.20;77.50;;;;;;5117053;28;20031;-76
2022/08/03 03:48:03;;;;;;;;;;;22.30;78.40;;;;;;5116942;28;20366;-75
2022/08/03 03:50:29;;;;;;;;;;;22.30;77.10;;;;;;5115411;28;19911;-76
2022/08/03 03:52:55;;;;;;;;;;;22.30;76.70;;;;;;5115739;28;20346;-76
2022/08/03 03:55:20;;;;;;;;;;;22.40;76.70;;;;;;5117524;28;19914;-77
2022/08/03 03:57:46;;;;;;;;;;;22.50;77.00;;;;;;5117880;28;19998;-78
2022/08/03 04:00:12;;;;;;;;;;;22.40;77.80;;;;;;5116894;28;20274;-79
2022/08/03 04:02:38;;;;;;;;;;;22.40;77.00;;;;;;5115324;28;19916;-78
2022/08/03 04:10:59;;;;;;;;;;;22.50;77.40;;;;;;5116851;28;19919;-73
2022/08/03 04:13:36;;;;;;;;;;;22.40;76.80;;;;;;5116004;28;19912;-72
2022/08/03 04:16:03;;;;;;;;;;;22.50;77.20;;;;;;5116513;28;20035;-71
2022/08/03 04:18:30;;;;;;;;;;;22.50;76.80;;;;;;5096338;28;19931;-72
2022/08/03 04:20:56;;;;;;;;;;;22.50;77.00;;;;;;5103354;28;19920;-71
2022/08/03 04:23:24;;;;;;;;;;;22.60;77.00;;;;;;5116697;28;19907;-72
2022/08/03 04:25:50;;;;;;;;;;;22.60;77.10;;;;;;5116049;28;19911;-71
2022/08/03 04:28:16;;;;;;;;;;;22.60;76.90;;;;;;5116680;28;19914;-73
2022/08/03 04:30:46;;;;;;;;;;;22.70;76.70;;;;;;5115948;28;19957;-70
2022/08/03 04:33:12;;;;;;;;;;;22.70;76.50;;;;;;5115687;28;19908;-71
2022/08/03 04:35:38;;;;;;;;;;;22.80;76.30;;;;;;5115671;28;20006;-72
2022/08/03 04:38:06;;;;;;;;;;;22.80;76.50;;;;;;5116525;28;19919;-72
2022/08/03 04:40:35;;;;;;;;;;;22.80;76.40;;;;;;5115815;28;19916;-72
2022/08/03 04:43:02;;;;;;;;;;;22.80;76.20;;;;;;5116501;28;19965;-72
2022/08/03 04:45:28;;;;;;;;;;;22.80;76.40;;;;;;5115934;28;20366;-70
2022/08/03 04:47:54;;;;;;;;;;;22.80;76.20;;;;;;5116179;28;19908;-72
2022/08/03 04:50:20;;;;;;;;;;;22.80;76.60;;;;;;5114624;28;19908;-71
2022/08/03 04:52:46;;;;;;;;;;;22.90;76.30;;;;;;5116031;28;19973;-71
2022/08/03 04:55:11;;;;;;;;;;;22.90;76.10;;;;;;5115461;28;19911;-71
2022/08/03 04:57:37;;;;;;;;;;;22.90;76.40;;;;;;5116127;28;19907;-72
2022/08/03 05:00:03;;;;;;;;;;;22.90;75.90;;;;;;5116080;28;20293;-71
2022/08/03 05:02:30;;;;;;;;;;;23.00;76.30;;;;;;5115416;28;19994;-72
2022/08/03 05:04:56;;;;;;;;;;;23.00;75.90;;;;;;5113108;28;20293;-71
2022/08/03 05:07:21;;;;;;;;;;;23.00;76.50;;;;;;5113221;28;19907;-71
2022/08/03 05:09:47;;;;;;;;;;;23.00;76.20;;;;;;5114565;28;19911;-71
2022/08/03 05:12:12;;;;;;;;;;;23.10;75.90;;;;;;5114572;28;19961;-72
2022/08/03 05:14:38;;;;;;;;;;;23.10;76.30;;;;;;5114421;28;19911;-71
2022/08/03 05:17:04;;;;;;;;;;;23.20;76.20;;;;;;5113282;28;19912;-69
2022/08/03 05:19:30;;;;;;;;;;;23.20;76.20;;;;;;5113817;28;20254;-71
2022/08/03 05:21:56;;;;;;;;;;;23.20;75.80;;;;;;5113614;28;19927;-71
2022/08/03 05:24:21;;;;;;;;;;;23.30;75.70;;;;;;5113761;28;19915;-74
2022/08/03 05:26:47;;;;;;;;;;;23.30;75.80;;;;;;5113988;28;19953;-77
2022/08/03 05:29:12;;;;;;;;;;;23.30;75.90;;;;;;5114235;28;19908;-74
2022/08/03 05:31:39;;;;;;;;;;;23.30;75.30;;;;;;5113928;28;19907;-77
2022/08/03 05:34:04;;;;;;;;;;;23.30;75.50;;;;;;5113841;28;19973;-78
2022/08/03 05:36:30;;;;;;;;;;;23.30;75.70;;;;;;5114062;28;19928;-77
2022/08/03 05:38:56;;;;;;;;;;;23.30;75.40;;;;;;5113802;28;20370;-79
2022/08/03 05:41:22;;;;;;;;;;;23.30;75.60;;;;;;5114032;28;19916;-77
2022/08/03 05:43:47;;;;;;;;;;;23.30;75.20;;;;;;5113754;28;19915;-77
2022/08/03 05:46:13;;;;;;;;;;;23.30;75.60;;;;;;5113022;28;19912;-79
2022/08/03 05:48:39;;;;;;;;;;;23.30;75.40;;;;;;5112194;28;20286;-75
2022/08/03 05:51:06;;;;;;;;;;;23.30;75.90;;;;;;5113629;28;19981;-79
2022/08/03 05:53:32;;;;;;;;;;;23.30;75.90;;;;;;5113360;28;19915;-77
2022/08/03 05:55:58;;;;;;;;;;;23.30;75.80;;;;;;5109333;28;19983;-75
2022/08/03 05:58:24;;;;;;;;;;;23.30;75.90;;;;;;5113690;28;19988;-76
2022/08/03 06:00:49;;;;;;;;;;;23.30;75.90;;;;;;5114000;28;19922;-74
2022/08/03 06:03:15;;;;;;;;;;;23.30;76.00;;;;;;5112592;28;20578;-74
2022/08/03 06:05:40;;;;;;;;;;;23.40;75.90;;;;;;5110655;28;19926;-70
2022/08/03 06:08:06;;;;;;;;;;;23.40;75.80;;;;;;5106056;28;20014;-75
2022/08/03 06:10:32;;;;;;;;;;;23.50;76.00;;;;;;5112181;28;20048;-76
2022/08/03 06:12:57;;;;;;;;;;;23.50;75.60;;;;;;5113764;28;19918;-75
2022/08/03 06:15:23;;;;;;;;;;;23.70;75.40;;;;;;5113485;28;19977;-75
2022/08/03 06:17:49;;;;;;;;;;;23.70;75.30;;;;;;5112905;28;19908;-76
2022/08/03 06:20:16;;;;;;;;;;;23.80;75.10;;;;;;5112527;28;19924;-75
2022/08/03 06:22:41;;;;;;;;;;;23.90;74.90;;;;;;5111357;28;19961;-73
2022/08/03 06:25:07;;;;;;;;;;;23.90;74.70;;;;;;5113797;28;20222;-76
2022/08/03 06:27:33;;;;;;;;;;;24.00;74.60;;;;;;5112741;28;19912;-75
2022/08/03 06:29:58;;;;;;;;;;;24.00;74.40;;;;;;5112542;28;19912;-78
2022/08/03 06:32:24;;;;;;;;;;;24.00;74.40;;;;;;5112863;28;20581;-75
2022/08/03 06:34:50;;;;;;;;;;;24.10;74.30;;;;;;5112547;28;19911;-76
2022/08/03 06:37:15;;;;;;;;;;;24.10;74.20;;;;;;5112488;28;20007;-75
2022/08/03 06:39:41;;;;;;;;;;;24.10;74.80;;;;;;5112583;28;20269;-74
2022/08/03 06:42:07;;;;;;;;;;;24.10;74.20;;;;;;5112657;28;19919;-75
2022/08/03 06:44:32;;;;;;;;;;;24.10;74.00;;;;;;5112628;28;19973;-75
2022/08/03 06:46:58;;;;;;;;;;;24.00;74.10;;;;;;5111341;28;19908;-76
2022/08/03 06:49:23;;;;;;;;;;;24.00;74.20;;;;;;5112490;28;20345;-74
2022/08/03 06:51:52;;;;;;;;;;;24.00;74.10;;;;;;5111930;28;20479;-76
2022/08/03 06:54:21;;;;;;;;;;;24.10;74.10;;;;;;5112188;28;19907;-73
2022/08/03 06:56:47;;;;;;;;;;;24.10;74.10;;;;;;5111265;28;19907;-75
2022/08/03 06:59:12;;;;;;;;;;;24.20;74.10;;;;;;5111793;28;20285;-74
2022/08/03 07:01:38;;;;;;;;;;;24.20;74.10;;;;;;5111952;28;19916;-74
2022/08/03 07:04:04;;;;;;;;;;;24.30;73.90;;;;;;5112936;28;19907;-79
2022/08/03 07:06:30;;;;;;;;;;;24.50;73.80;;;;;;5110835;28;19912;-74
2022/08/03 07:08:56;;;;;;;;;;;24.60;73.80;;;;;;5108879;28;19922;-80
2022/08/03 07:11:22;;;;;;;;;;;24.70;73.50;;;;;;5111924;28;19908;-80
2022/08/03 07:13:47;;;;;;;;;;;24.80;73.30;;;;;;5115392;28;19941;-81
2022/08/03 07:16:13;;;;;;;;;;;24.90;73.10;;;;;;5116186;28;19992;-80
2022/08/03 07:18:38;;;;;;;;;;;25.00;72.90;;;;;;5115922;28;19930;-82
2022/08/03 07:21:04;;;;;;;;;;;25.10;72.90;;;;;;5114660;28;20511;-78
2022/08/03 07:23:29;;;;;;;;;;;25.10;72.50;;;;;;5114734;28;19957;-79
2022/08/03 07:25:55;;;;;;;;;;;25.20;72.40;;;;;;5116360;28;19912;-77
2022/08/03 07:28:21;;;;;;;;;;;25.20;72.10;;;;;;5115009;28;20373;-76
2022/08/03 07:30:47;;;;;;;;;;;25.30;72.00;;;;;;5116167;28;19916;-76
2022/08/03 07:33:13;;;;;;;;;;;25.30;71.70;;;;;;5115550;28;19942;-79
2022/08/03 07:35:38;;;;;;;;;;;25.30;71.70;;;;;;5114322;28;20397;-79
2022/08/03 07:38:04;;;;;;;;;;;25.30;71.80;;;;;;5117073;28;19962;-76
2022/08/03 07:40:29;;;;;;;;;;;25.20;71.60;;;;;;5117194;28;19919;-79
2022/08/03 07:42:57;;;;;;;;;;;25.40;71.60;;;;;;5117102;28;20051;-73
2022/08/03 07:45:23;;;;;;;;;;;25.40;71.60;;;;;;5116599;28;19915;-74
2022/08/03 07:47:49;;;;;;;;;;;25.50;71.60;;;;;;5116701;28;19962;-76
2022/08/03 07:50:14;;;;;;;;;;;25.50;71.60;;;;;;5117382;28;19950;-74
2022/08/03 07:52:48;;;;;;;;;;;25.60;71.30;;;;;;5116638;28;19908;-72
2022/08/03 07:55:16;;;;;;;;;;;25.60;71.30;;;;;;5117563;28;19908;-75
2022/08/03 07:57:42;;;;;;;;;;;25.70;71.30;;;;;;5114568;28;19943;-73
2022/08/03 08:00:13;;;;;;;;;;;25.70;71.20;;;;;;5115838;28;19978;-76
2022/08/03 08:02:39;;;;;;;;;;;25.70;71.00;;;;;;5115236;28;20377;-74
2022/08/03 08:05:05;;;;;;;;;;;25.70;70.80;;;;;;5115863;28;20294;-76
2022/08/03 08:07:30;;;;;;;;;;;25.80;70.90;;;;;;5115228;28;19978;-72
2022/08/03 08:09:56;;;;;;;;;;;25.70;70.60;;;;;;5113959;28;19922;-76
2022/08/03 08:12:21;;;;;;;;;;;25.80;70.70;;;;;;5115292;28;19939;-73
2022/08/03 08:14:47;;;;;;;;;;;25.90;70.60;;;;;;5115508;28;19911;-75
2022/08/03 08:17:13;;;;;;;;;;;26.00;70.60;;;;;;5114959;28;20365;-73
2022/08/03 08:19:38;;;;;;;;;;;26.00;70.40;;;;;;5114777;28;19916;-74
2022/08/03 08:22:05;;;;;;;;;;;26.10;70.00;;;;;;5113710;28;19999;-74
2022/08/03 08:24:32;;;;;;;;;;;26.20;70.20;;;;;;5114556;28;19908;-73
2022/08/03 08:26:59;;;;;;;;;;;26.20;69.90;;;;;;5111212;28;20285;-73
2022/08/03 08:29:24;;;;;;;;;;;26.20;69.40;;;;;;5113783;28;20258;-72
2022/08/03 08:31:50;;;;;;;;;;;26.30;69.50;;;;;;5114998;28;19953;-72
2022/08/03 08:34:15;;;;;;;;;;;26.40;69.50;;;;;;5113894;28;19911;-75
2022/08/03 08:36:41;;;;;;;;;;;26.40;69.50;;;;;;5114291;28;19923;-75
2022/08/03 08:39:06;;;;;;;;;;;26.50;69.30;;;;;;5116017;28;20007;-74
2022/08/03 08:41:35;;;;;;;;;;;26.50;69.20;;;;;;5115555;28;19912;-72
2022/08/03 08:44:01;;;;;;;;;;;26.60;69.20;;;;;;5115386;28;19998;-74
2022/08/03 08:46:28;;;;;;;;;;;26.60;69.00;;;;;;5114266;28;20289;-76
2022/08/03 08:48:54;;;;;;;;;;;26.70;69.00;;;;;;5116417;28;19908;-77
2022/08/03 08:51:20;;;;;;;;;;;26.70;68.90;;;;;;5115987;28;19914;-72
2022/08/03 08:53:48;;;;;;;;;;;26.80;68.80;;;;;;5115412;28;20325;-74
2022/08/03 08:56:15;;;;;;;;;;;26.90;68.50;;;;;;5115719;28;19962;-72
2022/08/03 08:58:45;;;;;;;;;;;27.00;68.40;;;;;;5115575;28;20010;-74
2022/08/03 09:01:10;;;;;;;;;;;27.10;68.20;;;;;;5115526;28;20454;-77
2022/08/03 09:03:36;;;;;;;;;;;27.20;68.00;;;;;;5115277;28;19912;-77
2022/08/03 09:06:03;;;;;;;;;;;27.30;68.00;;;;;;5113557;28;19907;-76
2022/08/03 09:08:30;;;;;;;;;;;27.30;67.70;;;;;;5115115;28;19908;-77
2022/08/03 09:10:55;;;;;;;;;;;27.40;67.50;;;;;;5115115;28;19920;-72
2022/08/03 09:13:21;;;;;;;;;;;27.40;67.40;;;;;;5113795;28;19911;-76
2022/08/03 09:15:48;;;;;;;;;;;27.40;67.70;;;;;;5114957;28;19943;-76
2022/08/03 09:18:26;;;;;;;;;;;27.50;67.20;;;;;;5115321;28;20022;-74
2022/08/03 09:21:10;;;;;;;;;;;27.50;67.10;;;;;;5115261;28;20353;-74
2022/08/03 09:23:45;;;;;;;;;;;27.50;67.00;;;;;;5115078;28;19908;-75
2022/08/03 09:26:11;;;;;;;;;;;27.50;67.00;;;;;;5114753;28;20390;-75
2022/08/03 09:28:37;;;;;;;;;;;27.50;67.00;;;;;;5113628;28;20006;-74
2022/08/03 09:31:02;;;;;;;;;;;27.50;66.90;;;;;;5114750;28;20002;-77
2022/08/03 09:33:28;;;;;;;;;;;27.60;66.90;;;;;;5114814;28;20277;-78
2022/08/03 09:35:55;;;;;;;;;;;27.60;66.80;;;;;;5112532;28;20060;-74
2022/08/03 09:38:26;;;;;;;;;;;27.60;66.70;;;;;;5114577;28;20016;-73
2022/08/03 09:40:52;;;;;;;;;;;27.60;66.60;;;;;;5114877;28;20265;-74
2022/08/03 09:43:17;;;;;;;;;;;27.70;66.60;;;;;;5114738;28;19912;-73
2022/08/03 09:45:43;;;;;;;;;;;27.60;66.50;;;;;;5114392;28;19915;-72
2022/08/03 09:48:22;;;;;;;;;;;27.70;66.40;;;;;;5114544;28;20007;-76
2022/08/03 09:50:49;;;;;;;;;;;27.70;66.40;;;;;;5114340;28;19927;-76
2022/08/03 09:53:14;;;;;;;;;;;27.70;66.30;;;;;;5114301;28;20371;-73
2022/08/03 09:55:49;;;;;;;;;;;27.70;66.30;;;;;;5114398;28;19943;-75
2022/08/03 09:58:14;;;;;;;;;;;27.70;66.20;;;;;;5114304;28;19908;-75
2022/08/03 10:00:53;;;;;;;;;;;27.70;66.20;;;;;;5114652;28;19965;-75
2022/08/03 10:03:19;;;;;;;;;;;27.80;66.20;;;;;;5114649;28;19919;-73
2022/08/03 10:05:45;;;;;;;;;;;27.80;66.10;;;;;;5114170;28;19915;-75
2022/08/03 10:08:14;;;;;;;;;;;27.80;66.10;;;;;;5114414;28;19915;-75
2022/08/03 10:10:43;;;;;;;;;;;27.80;66.00;;;;;;5114232;28;19946;-74
2022/08/03 10:13:11;;;;;;;;;;;27.80;65.90;;;;;;5095913;28;20008;-75
2022/08/03 10:15:38;;;;;;;;;;;27.80;65.90;;;;;;5113946;28;19912;-75
2022/08/03 10:18:04;;;;;;;;;;;27.80;66.00;;;;;;5113922;28;19930;-75
2022/08/03 10:20:30;;;;;;;;;;;27.80;65.90;;;;;;5114674;28;19919;-77
2022/08/03 10:22:56;;;;;;;;;;;27.80;65.90;;;;;;5114088;28;19998;-74
2022/08/03 10:25:22;;;;;;;;;;;27.80;65.90;;;;;;5114078;28;20357;-74
2022/08/03 10:27:50;;;;;;;;;;;27.80;65.90;;;;;;5113883;28;19915;-74
2022/08/03 10:30:16;;;;;;;;;;;27.80;65.80;;;;;;5114393;28;20337;-77
2022/08/03 10:32:42;;;;;;;;;;;27.80;65.80;;;;;;5112654;28;19908;-71
2022/08/03 10:35:12;;;;;;;;;;;27.80;65.80;;;;;;5112884;28;19912;-73
2022/08/03 10:37:45;;;;;;;;;;;27.80;65.70;;;;;;5112692;28;19911;-78
2022/08/03 10:40:12;;;;;;;;;;;27.80;65.70;;;;;;5112503;28;19930;-75
2022/08/03 10:42:39;;;;;;;;;;;27.80;65.70;;;;;;5113973;28;19912;-75
2022/08/03 10:45:18;;;;;;;;;;;27.80;65.70;;;;;;5112572;28;20014;-77
2022/08/03 10:47:44;;;;;;;;;;;27.80;65.80;;;;;;5115696;28;20006;-74
2022/08/03 10:50:10;;;;;;;;;;;27.80;65.80;;;;;;5118198;28;20400;-73
2022/08/03 10:52:52;;;;;;;;;;;27.80;65.70;;;;;;5118117;28;19951;-76
2022/08/03 10:58:39;;;;;;;;;;;27.80;65.60;;;;;;5118246;28;19961;-76
2022/08/03 11:01:06;;;;;;;;;;;27.80;65.60;;;;;;5117715;28;19916;-73
2022/08/03 11:03:32;;;;;;;;;;;27.80;65.50;;;;;;5117788;28;19912;-76
2022/08/03 11:06:17;;;;;;;;;;;27.90;65.70;;;;;;5117133;28;19956;-74
2022/08/03 11:08:44;;;;;;;;;;;27.90;65.60;;;;;;5116735;28;20350;-75
2022/08/03 11:11:15;;;;;;;;;;;27.90;65.40;;;;;;5117353;28;19964;-75
2022/08/03 11:13:55;;;;;;;;;;;28.00;66.00;;;;;;5118538;28;20346;-75
2022/08/03 11:16:22;;;;;;;;;;;28.00;65.40;;;;;;5117654;28;19950;-76
2022/08/03 11:18:54;;;;;;;;;;;28.10;65.40;;;;;;5116519;28;20419;-77
2022/08/03 11:21:40;;;;;;;;;;;28.10;65.40;;;;;;5117124;28;19915;-76
2022/08/03 11:24:05;;;;;;;;;;;28.10;65.30;;;;;;5117155;28;19908;-74
2022/08/03 11:26:31;;;;;;;;;;;28.20;65.20;;;;;;5117378;28;19953;-78
2022/08/03 11:29:17;;;;;;;;;;;28.20;65.10;;;;;;5116988;28;19999;-76
2022/08/03 11:31:43;;;;;;;;;;;28.10;65.00;;;;;;5117174;28;19908;-75
2022/08/03 11:34:09;;;;;;;;;;;28.10;64.90;;;;;;5116051;28;20338;-76
2022/08/03 11:36:53;;;;;;;;;;;28.10;64.90;;;;;;5117453;28;19927;-78
2022/08/03 11:39:19;;;;;;;;;;;28.10;65.00;;;;;;5116926;28;19908;-74
2022/08/03 11:41:45;;;;;;;;;;;28.10;65.00;;;;;;5116243;28;19912;-75
2022/08/03 11:44:30;;;;;;;;;;;28.10;65.00;;;;;;5117082;28;19956;-74
2022/08/03 11:46:56;;;;;;;;;;;28.10;65.10;;;;;;5115400;28;19915;-79
2022/08/03 11:49:22;;;;;;;;;;;28.10;65.00;;;;;;5115625;28;19955;-77
2022/08/03 11:51:52;;;;;;;;;;;28.10;65.00;;;;;;5116808;28;19950;-76
2022/08/03 11:54:18;;;;;;;;;;;28.20;65.10;;;;;;5116988;28;19956;-75
2022/08/03 11:56:48;;;;;;;;;;;28.20;65.00;;;;;;5116840;28;19908;-78
2022/08/03 11:59:13;;;;;;;;;;;28.30;64.90;;;;;;5116045;28;20047;-76
2022/08/03 12:01:39;;;;;;;;;;;28.40;64.80;;;;;;5116714;28;19916;-75
2022/08/03 12:04:05;;;;;;;;;;;28.50;64.60;;;;;;5116725;28;19912;-74
2022/08/03 12:06:53;;;;;;;;;;;28.60;64.30;;;;;;5116034;28;19912;-76
2022/08/03 12:09:16;;;;;;;;;;;28.70;64.20;;;;;;5116235;28;19956;-76
2022/08/03 12:11:42;;;;;;;;;;;28.80;63.90;;;;;;5116477;28;19907;-75
2022/08/03 12:14:07;;;;;;;;;;;28.80;63.70;;;;;;5116372;28;19907;-77
2022/08/03 12:16:33;;;;;;;;;;;28.60;63.50;;;;;;5116491;28;19908;-77
2022/08/03 12:19:03;;;;;;;;;;;28.50;63.50;;;;;;5114775;28;19908;-76
2022/08/03 12:21:29;;;;;;;;;;;28.30;63.60;;;;;;5115037;28;19964;-75
2022/08/03 12:23:57;;;;;;;;;;;28.20;63.50;;;;;;5116568;28;20010;-74
2022/08/03 12:26:23;;;;;;;;;;;27.90;63.90;;;;;;5116549;28;19907;-76
2022/08/03 12:28:49;;;;;;;;;;;27.70;64.30;;;;;;5116366;28;19939;-75
2022/08/03 12:31:14;;;;;;;;;;;27.60;64.60;;;;;;5115935;28;19908;-74
2022/08/03 12:33:59;;;;;;;;;;;27.40;64.70;;;;;;5116549;28;19908;-74
2022/08/03 12:36:24;;;;;;;;;;;27.30;65.00;;;;;;5114997;28;19924;-74
2022/08/03 12:38:58;;;;;;;;;;;27.20;65.20;;;;;;5116655;28;19908;-75
2022/08/03 12:41:30;;;;;;;;;;;27.10;65.30;;;;;;5116467;28;19912;-74
2022/08/03 12:43:55;;;;;;;;;;;27.00;65.50;;;;;;5116304;28;19958;-75
2022/08/03 12:46:21;;;;;;;;;;;26.90;65.70;;;;;;5115161;28;19955;-73
2022/08/03 12:48:59;;;;;;;;;;;26.90;65.90;;;;;;5116156;28;20014;-74
2022/08/03 12:51:26;;;;;;;;;;;26.80;66.00;;;;;;5116230;28;19977;-75
2022/08/03 12:53:52;;;;;;;;;;;26.80;66.10;;;;;;5116278;28;19908;-74
2022/08/03 12:56:19;;;;;;;;;;;26.70;66.20;;;;;;5116092;28;19907;-76
2022/08/03 12:58:46;;;;;;;;;;;26.70;66.40;;;;;;5116127;28;19907;-73
2022/08/03 13:01:12;;;;;;;;;;;26.60;66.40;;;;;;5116032;28;20030;-73
2022/08/03 13:03:42;;;;;;;;;;;26.60;66.50;;;;;;5114793;28;20354;-74
2022/08/03 13:06:15;;;;;;;;;;;26.60;66.50;;;;;;5114708;28;20226;-74
2022/08/03 13:08:41;;;;;;;;;;;26.50;66.50;;;;;;5115679;28;19915;-74
2022/08/03 13:11:16;;;;;;;;;;;26.60;66.60;;;;;;5114868;28;20277;-75
2022/08/03 13:13:42;;;;;;;;;;;26.60;66.60;;;;;;5115804;28;19912;-76
2022/08/03 13:16:07;;;;;;;;;;;26.70;66.60;;;;;;5115605;28;19952;-75
2022/08/03 13:18:33;;;;;;;;;;;26.70;66.60;;;;;;5115782;28;19907;-75
2022/08/03 13:20:59;;;;;;;;;;;26.70;66.50;;;;;;5115266;28;19976;-74
2022/08/03 13:23:24;;;;;;;;;;;26.70;66.50;;;;;;5115690;28;19957;-73
2022/08/03 13:25:50;;;;;;;;;;;26.80;66.60;;;;;;5116073;28;19998;-74
2022/08/03 13:28:15;;;;;;;;;;;26.80;66.50;;;;;;5114288;28;19907;-75
2022/08/03 13:30:41;;;;;;;;;;;26.90;66.60;;;;;;5115385;28;19908;-74
2022/08/03 13:33:07;;;;;;;;;;;26.90;66.60;;;;;;5115804;28;19908;-75
2022/08/03 13:35:33;;;;;;;;;;;27.00;66.60;;;;;;5116023;28;19927;-75
2022/08/03 13:37:58;;;;;;;;;;;27.10;66.70;;;;;;5115219;28;20306;-75
2022/08/03 13:40:24;;;;;;;;;;;27.20;66.70;;;;;;5115449;28;19919;-74
2022/08/03 13:42:49;;;;;;;;;;;27.30;66.80;;;;;;5113946;28;19951;-75
2022/08/03 13:45:15;;;;;;;;;;;27.40;66.70;;;;;;5115285;28;19956;-75
2022/08/03 13:47:40;;;;;;;;;;;27.60;66.60;;;;;;5113689;28;19937;-75
2022/08/03 13:50:06;;;;;;;;;;;27.80;66.50;;;;;;5114813;28;19911;-74
2022/08/03 13:52:33;;;;;;;;;;;28.00;66.40;;;;;;5114775;28;20006;-74
2022/08/03 13:54:58;;;;;;;;;;;28.30;66.40;;;;;;5115396;28;19911;-74
2022/08/03 13:57:24;;;;;;;;;;;28.50;66.30;;;;;;5114904;28;20348;-76
2022/08/03 13:59:50;;;;;;;;;;;28.80;66.10;;;;;;5113529;28;19915;-73
2022/08/03 14:02:15;;;;;;;;;;;29.00;65.80;;;;;;5113572;28;20019;-71
2022/08/03 14:04:41;;;;;;;;;;;29.30;65.70;;;;;;5114643;28;19908;-74
2022/08/03 14:07:06;;;;;;;;;;;29.70;65.20;;;;;;5114833;28;19951;-74
2022/08/03 14:09:32;;;;;;;;;;;30.10;64.90;;;;;;5114819;28;19916;-75
2022/08/03 14:11:58;;;;;;;;;;;30.40;64.10;;;;;;5114762;28;19972;-74
2022/08/03 14:14:24;;;;;;;;;;;30.70;63.50;;;;;;5096525;28;19931;-74
2022/08/03 14:16:50;;;;;;;;;;;31.10;63.10;;;;;;5114714;28;19908;-72
2022/08/03 14:19:15;;;;;;;;;;;31.40;63.10;;;;;;5114440;28;19908;-74
2022/08/03 14:21:41;;;;;;;;;;;31.70;62.50;;;;;;5114111;28;19916;-75
2022/08/03 14:24:06;;;;;;;;;;;32.10;62.30;;;;;;5114301;28;19907;-75
2022/08/03 14:26:32;;;;;;;;;;;32.30;62.00;;;;;;5114566;28;19908;-73